createdAt,value
2023-01-31T00:02:14.581Z,99446.45
2023-01-31T00:04:47.781Z,99445.31
2023-01-31T00:07:21.240Z,99447.36
2023-01-31T00:09:54.587Z,99448.52
2023-01-31T00:12:27.581Z,99446.34
2023-01-31T00:15:01.391Z,99458.52
2023-01-31T00:17:35.176Z,99452.09
2023-01-31T00:20:10.107Z,99457.50
2023-01-31T00:22:43.159Z,99457.63
2023-01-31T00:25:16.083Z,99460.47
2023-01-31T00:27:49.059Z,99457.00
2023-01-31T00:30:22.666Z,99452.48
2023-01-31T00:32:55.753Z,99462.14
2023-01-31T00:35:30.181Z,99449.92
2023-01-31T00:38:03.250Z,99447.61
2023-01-31T00:40:37.294Z,99447.88
2023-01-31T00:43:11.659Z,99445.94
2023-01-31T00:45:46.391Z,99441.56
2023-01-31T00:48:20.779Z,99439.92
2023-01-31T00:50:54.609Z,99438.23
2023-01-31T00:53:27.655Z,99440.02
2023-01-31T00:56:15.385Z,99441.05
2023-01-31T00:58:50.100Z,99443.75
2023-01-31T01:01:30.144Z,99450.44
2023-01-31T01:04:03.609Z,99441.80
2023-01-31T01:06:44.470Z,99435.64
2023-01-31T01:09:18.070Z,99447.99
2023-01-31T01:11:52.917Z,99442.98
2023-01-31T01:14:26.005Z,99443.88
2023-01-31T01:16:59.462Z,99436.83
2023-01-31T01:19:32.565Z,99438.88
2023-01-31T01:22:05.889Z,99428.47
2023-01-31T01:24:39.074Z,99428.47
2023-01-31T01:27:13.108Z,99429.63
2023-01-31T01:29:46.229Z,99428.48
2023-01-31T01:32:19.246Z,99441.05
2023-01-31T01:34:52.609Z,99440.66
2023-01-31T01:37:25.622Z,99453.49
2023-01-31T01:39:58.943Z,99455.70
2023-01-31T01:42:36.409Z,99453.76
2023-01-31T01:45:18.858Z,99456.20
2023-01-31T01:47:57.734Z,99454.38
2023-01-31T01:50:37.769Z,99456.06
2023-01-31T01:53:18.111Z,99465.45
2023-01-31T01:56:03.876Z,99464.52
2023-01-31T01:58:43.452Z,99464.12
2023-01-31T02:01:17.778Z,99459.78
2023-01-31T02:03:52.895Z,99456.82
2023-01-31T02:06:26.790Z,99451.16
2023-01-31T02:09:00.355Z,99446.69
2023-01-31T02:11:34.275Z,99444.91
2023-01-31T02:14:10.204Z,99444.77
2023-01-31T02:16:43.698Z,99445.53
2023-01-31T02:19:38.575Z,99442.59
2023-01-31T02:22:16.133Z,99445.79
2023-01-31T02:25:10.905Z,99441.18
2023-01-31T02:28:14.521Z,99435.25
2023-01-31T02:31:26.374Z,99442.96
2023-01-31T02:34:12.420Z,99434.37
2023-01-31T02:37:10.431Z,99436.94
2023-01-31T02:39:58.079Z,99434.37
2023-01-31T02:42:58.072Z,99431.27
2023-01-31T02:45:47.858Z,99422.81
2023-01-31T02:48:49.547Z,99425.91
2023-01-31T02:51:36.601Z,99426.80
2023-01-31T02:54:22.801Z,99427.19
2023-01-31T02:56:56.264Z,99433.61
2023-01-31T02:59:31.111Z,99429.75
2023-01-31T03:02:05.536Z,99433.22
2023-01-31T03:04:39.312Z,99440.30
2023-01-31T03:07:26.579Z,99438.75
2023-01-31T03:10:39.202Z,99437.20
2023-01-31T03:13:37.713Z,99431.02
2023-01-31T03:16:51.244Z,99429.23
2023-01-31T03:19:37.985Z,99428.97
2023-01-31T03:22:17.013Z,99422.16
2023-01-31T03:24:53.057Z,99420.61
2023-01-31T03:27:26.359Z,99407.91
2023-01-31T03:30:04.061Z,99424.86
2023-01-31T03:32:42.035Z,99429.47
2023-01-31T03:35:15.613Z,99438.84
2023-01-31T03:37:59.796Z,99443.33
2023-01-31T03:40:37.690Z,99443.59
2023-01-31T03:43:18.097Z,99435.78
2023-01-31T03:46:03.658Z,99437.07
2023-01-31T03:48:42.618Z,99434.50
2023-01-31T03:51:21.552Z,99447.20
2023-01-31T03:54:01.795Z,99440.12
2023-01-31T03:56:45.664Z,99441.55
2023-01-31T03:59:26.044Z,99440.03
2023-01-31T04:02:01.933Z,99438.75
2023-01-31T04:04:40.469Z,99449.64
2023-01-31T04:07:14.521Z,99455.93
2023-01-31T04:09:47.598Z,99468.02
2023-01-31T04:12:20.900Z,99458.76
2023-01-31T04:14:53.992Z,99462.25
2023-01-31T04:17:27.158Z,99459.68
2023-01-31T04:20:00.729Z,99458.76
2023-01-31T04:22:34.591Z,99460.94
2023-01-31T04:25:09.272Z,99460.57
2023-01-31T04:27:43.667Z,99451.19
2023-01-31T04:30:16.668Z,99452.61
2023-01-31T04:32:50.412Z,99452.61
2023-01-31T04:35:23.551Z,99453.27
2023-01-31T04:37:58.300Z,99460.44
2023-01-31T04:40:33.005Z,99448.12
2023-01-31T04:43:06.459Z,99455.56
2023-01-31T04:45:42.239Z,99453.00
2023-01-31T04:48:15.389Z,99455.17
2023-01-31T04:50:48.577Z,99445.42
2023-01-31T04:53:22.700Z,99452.47
2023-01-31T04:55:58.581Z,99447.73
2023-01-31T04:58:32.861Z,99441.94
2023-01-31T05:01:05.020Z,99446.81
2023-01-31T05:03:38.503Z,99445.00
2023-01-31T05:06:11.419Z,99443.33
2023-01-31T05:08:45.260Z,99448.59
2023-01-31T05:11:18.472Z,99449.61
2023-01-31T05:13:52.303Z,99447.92
2023-01-31T05:16:25.399Z,99451.64
2023-01-31T05:18:58.524Z,99449.61
2023-01-31T05:21:33.094Z,99453.98
2023-01-31T05:24:08.535Z,99453.98
2023-01-31T05:26:42.042Z,99445.49
2023-01-31T05:29:15.678Z,99454.61
2023-01-31T05:31:50.276Z,99455.01
2023-01-31T05:34:24.550Z,99461.95
2023-01-31T05:36:58.246Z,99461.55
2023-01-31T05:39:31.360Z,99457.58
2023-01-31T05:42:04.482Z,99449.78
2023-01-31T05:44:37.436Z,99454.52
2023-01-31T05:47:10.447Z,99452.84
2023-01-31T05:49:43.785Z,99453.63
2023-01-31T05:52:16.905Z,99466.73
2023-01-31T05:54:49.901Z,99456.22
2023-01-31T05:57:22.924Z,99456.22
2023-01-31T05:59:55.739Z,99458.92
2023-01-31T06:02:28.804Z,99453.02
2023-01-31T06:05:02.141Z,99454.31
2023-01-31T06:07:36.522Z,99462.38
2023-01-31T06:10:11.973Z,99460.33
2023-01-31T06:12:45.013Z,99461.48
2023-01-31T06:15:19.872Z,99449.92
2023-01-31T06:17:53.048Z,99450.18
2023-01-31T06:20:27.155Z,99457.75
2023-01-31T06:23:01.676Z,99450.83
2023-01-31T06:25:34.683Z,99458.27
2023-01-31T06:28:08.095Z,99457.77
2023-01-31T06:30:41.672Z,99458.64
2023-01-31T06:33:15.094Z,99457.75
2023-01-31T06:35:47.732Z,99468.54
2023-01-31T06:38:20.456Z,99461.23
2023-01-31T06:40:53.534Z,99459.81
2023-01-31T06:43:26.727Z,99460.08
2023-01-31T06:45:59.984Z,99456.72
2023-01-31T06:48:33.310Z,99454.80
2023-01-31T06:51:07.263Z,99457.50
2023-01-31T06:53:39.962Z,99453.90
2023-01-31T06:56:12.807Z,99446.70
2023-01-31T06:58:45.747Z,99448.86
2023-01-31T07:01:19.075Z,99440.23
2023-01-31T07:03:52.229Z,99439.09
2023-01-31T07:06:25.196Z,99443.84
2023-01-31T07:08:58.834Z,99450.54
2023-01-31T07:11:32.636Z,99457.88
2023-01-31T07:14:05.947Z,99456.71
2023-01-31T07:16:39.566Z,99452.19
2023-01-31T07:19:12.520Z,99453.11
2023-01-31T07:21:47.531Z,99455.55
2023-01-31T07:24:20.716Z,99455.28
2023-01-31T07:26:55.235Z,99465.30
2023-01-31T07:29:31.284Z,99468.13
2023-01-31T07:32:04.429Z,99460.01
2023-01-31T07:34:37.514Z,99464.52
2023-01-31T07:37:10.292Z,99462.32
2023-01-31T07:39:43.172Z,99463.20
2023-01-31T07:42:16.499Z,99468.23
2023-01-31T07:44:49.879Z,99467.84
2023-01-31T07:47:23.032Z,99457.83
2023-01-31T07:49:56.997Z,99457.03
2023-01-31T07:52:30.780Z,99458.20
2023-01-31T07:55:04.319Z,99458.95
2023-01-31T07:57:38.360Z,99461.13
2023-01-31T08:00:14.741Z,99461.50
2023-01-31T08:03:05.775Z,99465.34
2023-01-31T08:05:38.989Z,99471.74
2023-01-31T08:08:12.066Z,99468.53
2023-01-31T08:10:47.306Z,99478.67
2023-01-31T08:13:22.602Z,99481.77
2023-01-31T08:15:56.289Z,99478.64
2023-01-31T08:18:29.482Z,99479.69
2023-01-31T08:21:02.439Z,99484.16
2023-01-31T08:23:36.335Z,99481.59
2023-01-31T08:26:16.720Z,99482.11
2023-01-31T08:28:52.040Z,99486.86
2023-01-31T08:31:27.613Z,99490.08
2023-01-31T08:34:00.674Z,99482.48
2023-01-31T08:36:36.031Z,99489.04
2023-01-31T08:39:09.347Z,99483.73
2023-01-31T08:41:42.873Z,99490.30
2023-01-31T08:44:15.822Z,99492.10
2023-01-31T08:46:48.749Z,99494.68
2023-01-31T08:49:21.815Z,99489.02
2023-01-31T08:51:54.771Z,99487.33
2023-01-31T08:54:27.784Z,99486.44
2023-01-31T08:57:00.757Z,99482.30
2023-01-31T08:59:33.727Z,99484.51
2023-01-31T09:02:06.830Z,99482.55
2023-01-31T09:04:40.267Z,99478.92
2023-01-31T09:07:13.105Z,99483.83
2023-01-31T09:09:46.926Z,99489.19
2023-01-31T09:12:19.845Z,99482.87
2023-01-31T09:14:54.031Z,99473.63
2023-01-31T09:17:27.218Z,99478.53
2023-01-31T09:20:00.564Z,99471.97
2023-01-31T09:22:35.199Z,99477.88
2023-01-31T09:25:09.916Z,99472.09
2023-01-31T09:27:43.162Z,99467.06
2023-01-31T09:30:17.240Z,99462.03
2023-01-31T09:32:50.382Z,99463.44
2023-01-31T09:35:23.672Z,99461.11
2023-01-31T09:37:56.789Z,99465.45
2023-01-31T09:40:33.308Z,99461.59
2023-01-31T09:43:10.118Z,99455.03
2023-01-31T09:45:44.147Z,99458.25
2023-01-31T09:48:23.977Z,99459.02
2023-01-31T09:50:59.247Z,99454.11
2023-01-31T09:53:38.081Z,99453.02
2023-01-31T09:56:28.402Z,99449.03
2023-01-31T09:59:21.103Z,99453.02
2023-01-31T10:02:24.162Z,99451.41
2023-01-31T10:05:30.814Z,99444.53
2023-01-31T10:08:24.116Z,99439.82
2023-01-31T10:11:00.649Z,99445.19
2023-01-31T10:13:39.392Z,99435.57
2023-01-31T10:16:31.902Z,99436.42
2023-01-31T10:19:09.649Z,99438.84
2023-01-31T10:21:47.328Z,99433.94
2023-01-31T10:24:30.491Z,99429.50
2023-01-31T10:27:20.264Z,99428.61
2023-01-31T10:29:56.343Z,99433.85
2023-01-31T10:32:43.670Z,99433.05
2023-01-31T10:35:32.305Z,99434.06
2023-01-31T10:38:09.949Z,99430.48
2023-01-31T10:40:46.868Z,99432.32
2023-01-31T10:43:27.667Z,99428.58
2023-01-31T10:46:02.425Z,99427.66
2023-01-31T10:48:36.914Z,99422.72
2023-01-31T10:51:17.743Z,99425.42
2023-01-31T10:54:21.548Z,99425.94
2023-01-31T10:56:54.713Z,99425.66
2023-01-31T10:59:34.619Z,99430.60
2023-01-31T11:02:11.368Z,99423.55
2023-01-31T11:04:45.392Z,99421.14
2023-01-31T11:07:20.412Z,99421.54
2023-01-31T11:09:55.828Z,99419.84
2023-01-31T11:12:46.353Z,99421.66
2023-01-31T11:15:22.024Z,99416.94
2023-01-31T11:17:55.262Z,99413.84
2023-01-31T11:20:40.546Z,99412.56
2023-01-31T11:23:24.435Z,99417.58
2023-01-31T11:25:57.871Z,99422.23
2023-01-31T11:28:42.649Z,99417.45
2023-01-31T11:31:23.034Z,99415.28
2023-01-31T11:34:04.992Z,99412.22
2023-01-31T11:36:47.248Z,99412.74
2023-01-31T11:39:28.979Z,99411.67
2023-01-31T11:42:12.780Z,99412.28
2023-01-31T11:45:06.665Z,99408.91
2023-01-31T11:47:50.390Z,99411.58
2023-01-31T11:50:39.704Z,99411.94
2023-01-31T11:53:29.072Z,99416.16
2023-01-31T11:56:16.087Z,99415.36
2023-01-31T11:58:51.473Z,99412.30
2023-01-31T12:01:26.818Z,99410.89
2023-01-31T12:04:04.783Z,99412.18
2023-01-31T12:06:43.253Z,99417.20
2023-01-31T12:09:25.860Z,99413.34
2023-01-31T12:12:08.010Z,99409.73
2023-01-31T12:14:43.734Z,99414.76
2023-01-31T12:17:20.726Z,99410.25
2023-01-31T12:20:26.571Z,99408.32
2023-01-31T12:22:55.748Z,99413.19
2023-01-31T12:25:55.078Z,99415.13
2023-01-31T12:28:49.269Z,99407.80
2023-01-31T12:31:46.892Z,99409.48
2023-01-31T12:35:03.309Z,99413.06
2023-01-31T12:37:50.969Z,99409.09
2023-01-31T12:40:39.409Z,99418.22
2023-01-31T12:43:22.595Z,99414.23
2023-01-31T12:46:15.568Z,99417.70
2023-01-31T12:49:19.312Z,99421.55
2023-01-31T12:52:20.717Z,99425.05
2023-01-31T12:55:22.882Z,99428.80
2023-01-31T12:58:12.807Z,99427.50
2023-01-31T13:01:06.310Z,99424.25
2023-01-31T13:03:59.448Z,99424.25
2023-01-31T13:06:49.047Z,99420.67
2023-01-31T13:09:27.589Z,99422.84
2023-01-31T13:12:20.186Z,99427.23
2023-01-31T13:15:10.585Z,99421.55
2023-01-31T13:17:45.660Z,99423.24
2023-01-31T13:20:36.044Z,99415.52
2023-01-31T13:23:25.387Z,99417.97
2023-01-31T13:26:15.173Z,99416.05
2023-01-31T13:29:22.951Z,99419.91
2023-01-31T13:32:12.177Z,99420.30
2023-01-31T13:34:54.307Z,99413.34
2023-01-31T13:37:30.766Z,99418.41
2023-01-31T13:40:20.440Z,99419.17
2023-01-31T13:42:54.448Z,99421.87
2023-01-31T13:45:37.540Z,99416.20
2023-01-31T13:48:24.263Z,99424.84
2023-01-31T13:51:18.348Z,99423.16
2023-01-31T13:53:56.345Z,99418.41
2023-01-31T13:56:33.474Z,99427.42
2023-01-31T13:59:11.705Z,99427.78
2023-01-31T14:01:48.624Z,99422.80
2023-01-31T14:04:26.235Z,99428.83
2023-01-31T14:07:10.507Z,99427.42
2023-01-31T14:09:54.040Z,99420.50
2023-01-31T14:12:34.682Z,99415.59
2023-01-31T14:15:46.382Z,99415.99
2023-01-31T14:18:44.301Z,99415.99
2023-01-31T14:21:37.873Z,99415.59
2023-01-31T14:24:15.647Z,99413.02
2023-01-31T14:26:55.096Z,99416.27
2023-01-31T14:29:28.686Z,99417.92
2023-01-31T14:32:01.560Z,99416.39
2023-01-31T14:34:36.366Z,99418.84
2023-01-31T14:37:35.030Z,99421.56
2023-01-31T14:40:15.790Z,99420.68
2023-01-31T14:43:13.513Z,99428.92
2023-01-31T14:46:03.236Z,99429.22
2023-01-31T14:49:06.765Z,99428.96
2023-01-31T14:52:04.364Z,99430.27
2023-01-31T14:54:47.931Z,99433.00
2023-01-31T14:57:28.124Z,99439.42
2023-01-31T15:00:08.529Z,99439.30
2023-01-31T15:02:55.568Z,99443.68
2023-01-31T15:05:39.956Z,99440.96
2023-01-31T15:08:20.867Z,99440.69
2023-01-31T15:11:40.774Z,99446.99
2023-01-31T15:14:00.949Z,99443.27
2023-01-31T15:16:36.419Z,99440.66
2023-01-31T15:19:20.453Z,99447.86
2023-01-31T15:22:03.826Z,99440.67
2023-01-31T15:24:45.885Z,99442.20
2023-01-31T15:27:33.802Z,99442.20
2023-01-31T15:30:14.275Z,99449.53
2023-01-31T15:33:02.697Z,99448.64
2023-01-31T15:35:53.211Z,99459.17
2023-01-31T15:38:37.137Z,99447.34
2023-01-31T15:41:24.349Z,99449.55
2023-01-31T15:44:00.207Z,99455.36
2023-01-31T15:46:36.426Z,99454.09
2023-01-31T15:49:39.612Z,99457.58
2023-01-31T15:52:17.760Z,99456.03
2023-01-31T15:54:59.888Z,99463.75
2023-01-31T15:57:45.623Z,99461.30
2023-01-31T16:00:31.750Z,99462.83
2023-01-31T16:03:08.187Z,99461.69
2023-01-31T16:05:42.053Z,99460.28
2023-01-31T16:08:37.641Z,99463.88
2023-01-31T16:11:12.056Z,99463.38
2023-01-31T16:13:46.120Z,99461.85
2023-01-31T16:16:20.160Z,99462.63
2023-01-31T16:18:56.325Z,99458.02
2023-01-31T16:21:40.219Z,99454.17
2023-01-31T16:24:20.809Z,99451.33
2023-01-31T16:27:15.869Z,99447.20
2023-01-31T16:29:58.937Z,99451.19
2023-01-31T16:32:37.988Z,99452.59
2023-01-31T16:35:25.832Z,99455.17
2023-01-31T16:38:08.917Z,99454.28
2023-01-31T16:40:48.718Z,99455.30
2023-01-31T16:43:28.590Z,99457.23
2023-01-31T16:46:09.792Z,99458.39
2023-01-31T16:48:42.922Z,99463.90
2023-01-31T16:51:29.538Z,99464.83
2023-01-31T16:54:26.443Z,99460.83
2023-01-31T16:57:08.678Z,99473.69
2023-01-31T16:59:45.904Z,99468.03
2023-01-31T17:02:26.697Z,99467.28
2023-01-31T17:05:03.144Z,99467.79
2023-01-31T17:07:38.259Z,99469.34
2023-01-31T17:10:13.502Z,99474.58
2023-01-31T17:12:46.921Z,99467.41
2023-01-31T17:15:22.102Z,99472.78
2023-01-31T17:17:55.567Z,99468.03
2023-01-31T17:20:28.757Z,99463.16
2023-01-31T17:23:03.305Z,99468.16
2023-01-31T17:25:37.655Z,99465.33
2023-01-31T17:28:11.464Z,99461.22
2023-01-31T17:30:46.686Z,99457.50
2023-01-31T17:33:20.048Z,99449.16
2023-01-31T17:35:53.098Z,99453.91
2023-01-31T17:38:27.584Z,99457.50
2023-01-31T17:41:00.989Z,99458.03
2023-01-31T17:43:34.049Z,99458.39
2023-01-31T17:46:07.200Z,99465.84
2023-01-31T17:48:40.106Z,99468.28
2023-01-31T17:51:13.887Z,99474.30
2023-01-31T17:53:50.196Z,99469.30
2023-01-31T17:56:22.592Z,99471.11
2023-01-31T17:58:55.558Z,99466.33
2023-01-31T18:01:28.656Z,99461.23
2023-01-31T18:04:01.640Z,99460.56
2023-01-31T18:06:36.249Z,99461.72
2023-01-31T18:09:10.531Z,99462.12
2023-01-31T18:11:44.862Z,99463.66
2023-01-31T18:14:19.046Z,99465.70
2023-01-31T18:16:54.436Z,99462.13
2023-01-31T18:19:28.708Z,99459.29
2023-01-31T18:22:01.700Z,99453.63
2023-01-31T18:24:35.132Z,99459.16
2023-01-31T18:27:08.325Z,99457.38
2023-01-31T18:29:41.267Z,99453.88
2023-01-31T18:32:14.816Z,99453.39
2023-01-31T18:34:49.525Z,99454.68
2023-01-31T18:37:22.924Z,99453.39
2023-01-31T18:39:56.022Z,99450.19
2023-01-31T18:42:29.365Z,99452.09
2023-01-31T18:45:04.008Z,99449.41
2023-01-31T18:47:37.256Z,99448.11
2023-01-31T18:50:11.304Z,99443.64
2023-01-31T18:52:44.704Z,99444.66
2023-01-31T18:55:17.822Z,99448.02
2023-01-31T18:57:51.294Z,99456.61
2023-01-31T19:00:24.772Z,99449.28
2023-01-31T19:02:58.935Z,99453.39
2023-01-31T19:05:32.034Z,99456.72
2023-01-31T19:08:05.165Z,99456.19
2023-01-31T19:10:38.332Z,99453.89
2023-01-31T19:13:11.319Z,99456.33
2023-01-31T19:15:44.500Z,99452.87
2023-01-31T19:18:18.021Z,99452.47
2023-01-31T19:20:51.063Z,99452.87
2023-01-31T19:23:23.961Z,99450.95
2023-01-31T19:25:57.410Z,99449.28
2023-01-31T19:28:30.913Z,99449.41
2023-01-31T19:31:10.768Z,99438.50
2023-01-31T19:33:46.336Z,99436.95
2023-01-31T19:36:29.813Z,99444.13
2023-01-31T19:39:06.070Z,99452.63
2023-01-31T19:41:39.224Z,99445.16
2023-01-31T19:44:12.393Z,99452.37
2023-01-31T19:46:46.613Z,99441.31
2023-01-31T19:49:23.164Z,99441.44
2023-01-31T19:51:56.197Z,99446.05
2023-01-31T19:54:29.674Z,99437.20
2023-01-31T19:57:02.603Z,99440.78
2023-01-31T19:59:36.635Z,99431.93
2023-01-31T20:02:12.858Z,99426.66
2023-01-31T20:04:46.887Z,99419.61
2023-01-31T20:07:20.655Z,99415.13
2023-01-31T20:09:54.153Z,99418.71
2023-01-31T20:12:27.143Z,99417.56
2023-01-31T20:15:01.489Z,99417.69
2023-01-31T20:17:34.706Z,99415.13
2023-01-31T20:20:09.681Z,99412.81
2023-01-31T20:22:43.254Z,99411.41
2023-01-31T20:25:16.482Z,99405.34
2023-01-31T20:27:50.042Z,99409.20
2023-01-31T20:30:23.897Z,99401.49
2023-01-31T20:32:56.195Z,99407.42
2023-01-31T20:35:29.702Z,99413.72
2023-01-31T20:38:03.075Z,99421.79
2023-01-31T20:40:36.179Z,99421.80
2023-01-31T20:43:08.897Z,99425.22
2023-01-31T20:45:42.049Z,99417.78
2023-01-31T20:48:16.277Z,99416.63
2023-01-31T20:50:57.777Z,99410.22
2023-01-31T20:53:32.255Z,99410.22
2023-01-31T20:56:06.534Z,99404.42
2023-01-31T20:58:40.664Z,99401.98
2023-01-31T21:01:14.531Z,99400.17
2023-01-31T21:03:47.531Z,99409.78
2023-01-31T21:06:20.743Z,99421.28
2023-01-31T21:08:55.536Z,99437.27
2023-01-31T21:11:29.135Z,99451.84
2023-01-31T21:14:02.871Z,99456.47
2023-01-31T21:16:36.117Z,99449.66
2023-01-31T21:19:09.064Z,99449.55
2023-01-31T21:21:41.980Z,99439.97
2023-01-31T21:24:14.966Z,99455.78
2023-01-31T21:26:48.689Z,99450.29
2023-01-31T21:29:21.552Z,99456.03
2023-01-31T21:31:54.961Z,99453.34
2023-01-31T21:34:28.160Z,99440.52
2023-01-31T21:37:01.321Z,99443.88
2023-01-31T21:39:34.656Z,99445.38
2023-01-31T21:42:16.403Z,99445.25
2023-01-31T21:44:50.248Z,99449.63
2023-01-31T21:47:23.488Z,99445.52
2023-01-31T21:49:56.549Z,99438.22
2023-01-31T21:52:29.521Z,99435.70
2023-01-31T21:55:02.348Z,99436.19
2023-01-31T21:57:35.685Z,99433.62
2023-01-31T22:00:10.571Z,99429.77
2023-01-31T22:02:43.882Z,99428.89
2023-01-31T22:05:16.792Z,99433.77
2023-01-31T22:07:50.432Z,99440.44
2023-01-31T22:10:23.615Z,99439.02
2023-01-31T22:12:56.459Z,99424.38
2023-01-31T22:15:29.081Z,99435.70
2023-01-31T22:18:02.832Z,99441.09
2023-01-31T22:20:35.818Z,99440.44
2023-01-31T22:23:08.776Z,99435.44
2023-01-31T22:25:41.681Z,99433.14
2023-01-31T22:28:14.913Z,99436.37
2023-01-31T22:30:57.667Z,99429.02
2023-01-31T22:33:38.773Z,99428.89
2023-01-31T22:36:14.551Z,99431.20
2023-01-31T22:38:47.877Z,99434.95
2023-01-31T22:41:20.995Z,99438.80
2023-01-31T22:43:55.385Z,99436.23
2023-01-31T22:46:30.435Z,99436.11
2023-01-31T22:49:03.495Z,99436.24
2023-01-31T22:51:37.633Z,99434.70
2023-01-31T22:54:11.289Z,99434.95
2023-01-31T22:56:44.435Z,99432.78
2023-01-31T22:59:17.237Z,99436.15
2023-01-31T23:01:50.561Z,99434.47
2023-01-31T23:04:23.755Z,99426.14
2023-01-31T23:06:57.355Z,99434.23
2023-01-31T23:09:30.564Z,99425.12
2023-01-31T23:12:03.999Z,99423.70
2023-01-31T23:14:37.298Z,99427.42
2023-01-31T23:17:29.793Z,99418.05
2023-01-31T23:20:03.041Z,99413.05
2023-01-31T23:22:38.010Z,99423.18
2023-01-31T23:25:13.557Z,99429.96
2023-01-31T23:27:46.487Z,99427.03
2023-01-31T23:30:21.880Z,99417.26
2023-01-31T23:32:55.229Z,99426.64
2023-01-31T23:35:28.882Z,99425.61
2023-01-31T23:38:01.738Z,99430.62
2023-01-31T23:40:35.419Z,99428.97
2023-01-31T23:43:08.474Z,99428.71
2023-01-31T23:45:41.409Z,99421.77
2023-01-31T23:48:14.429Z,99418.83
2023-01-31T23:50:47.555Z,99421.89
2023-01-31T23:53:20.469Z,99414.59
2023-01-31T23:55:53.921Z,99419.33
2023-01-31T23:58:26.881Z,99416.00
